Hauptseite
METAR-TAF:

METAR-TAF

Flughäfen :

Flugplatz Buochs

Buochs, Schweiz

Breite: 46-58-28N, Länge: 8-23-49E, Höhe: 449 m

Beobachtung

Neuester Wetterbericht von vor 19 Minuten, um 00:50 UTC
Wind 3 kt aus unterschiedlichen Richtungen
Temperatur 12°C
Luftfeuchtigkeit 58%
Luftdruck 999 hPa
Sichtweite 10 km oder mehr

METAR: LSZC 230050Z AUTO VRB03KT 9999 NSC 12/04 Q0999

Zeit: 03:09 (01:09 UTC)

Prognose

Neuester Wetterbericht von vor 10 Stunden und 44 Minuten, um 14:25 UTC
Gültige Prognose vom 22 um 15 UTC bis 22 um 24 UTC
Wind 5 kt aus unterschiedlichen Richtungen
Sichtweite 10 km oder mehr
keine Wolken unter 1500 m und keine Kumulonimbus oder Gewitterwolken

TAF: LSZC 221425Z 2215/2224 VRB05KT CAVOK

Wetterbeobachtungen und Prognosen von mehr als 4000 Flughäfen (METAR und TAF Bericht).

Die verfügbaren Stationen werden durch gelbe und rote Markierungen auf der Karte dargestellt.

Führen Sie die Maus auf sie, um den Namen der Station zu sehen.

Darauf klicken, um die Beobachtung von Wetterbeobachtungen und Prognosen zu sehen.

Um die Karte zu ändern : klicken Sie auf den grünen Tasten mit einem schwarzen Kreuz Zum Vergrößern, auf den grünen Button mit einem Gedankenstrich zu verkleinern, oder auf die grünen Pfeile für benachbarte Karten.


METAR-TAF: